METAR Data
IDs: Format: Raw Decoded Include TAF

Data at: 0150 UTC 24 May 2019

METAR for:PAVC (King Cove Arpt, AK, US)
Text:PAVC 240144Z AUTO 29004KT 10SM BKN025 OVC030 09/06 A3018 RMK AO2
Temperature: 9.0°C ( 48°F)
Dewpoint: 6.0°C ( 43°F) [RH = 81%]
Pressure (altimeter):30.18 inches Hg (1022.1 mb)
Winds:from the WNW (290 degrees) at 5 MPH (4 knots; 2.1 m/s)
Visibility:10 or more sm (16+ km)
Ceiling:2500 feet AGL
Clouds: broken clouds at 2500 feet AGL, overcast cloud deck at 3000 feet AGL
QC Flag:automated observation with no human augmentation
Text:PAVC 240056Z AUTO 25009KT 10SM OVC043 11/06 A3017 RMK AO2 SLP224 T01110056
Temperature: 11.1°C ( 52°F)
Dewpoint: 5.6°C ( 42°F) [RH = 69%]
Pressure (altimeter):30.17 inches Hg (1021.8 mb) [Sea level pressure: 1022.4 mb]
Winds:from the WSW (250 degrees) at 10 MPH (9 knots; 4.6 m/s)
Visibility:10 or more sm (16+ km)
Ceiling:4300 feet AGL
Clouds: overcast cloud deck at 4300 feet AGL
QC Flag:automated observation with no human augmentation
Text:PAVC 232356Z AUTO 25009KT 10SM OVC039 11/06 A3016 RMK AO2 SLP218 60000 T01060056 10106 20072 50009
Temperature: 10.6°C ( 51°F)
Dewpoint: 5.6°C ( 42°F) [RH = 71%]
Pressure (altimeter):30.16 inches Hg (1021.4 mb) [Sea level pressure: 1021.8 mb]
Winds:from the WSW (250 degrees) at 10 MPH (9 knots; 4.6 m/s)
Visibility:10 or more sm (16+ km)
Ceiling:3900 feet AGL
Clouds: overcast cloud deck at 3900 feet AGL
QC Flag:automated observation with no human augmentation
Text:PAVC 232333Z AUTO 25008KT 10SM SCT029 OVC037 10/05 A3016 RMK AO2
Temperature: 10.0°C ( 50°F)
Dewpoint: 5.0°C ( 41°F) [RH = 71%]
Pressure (altimeter):30.16 inches Hg (1021.4 mb)
Winds:from the WSW (250 degrees) at 9 MPH (8 knots; 4.1 m/s)
Visibility:10 or more sm (16+ km)
Ceiling:3700 feet AGL
Clouds: scattered clouds at 2900 feet AGL, overcast cloud deck at 3700 feet AGL
QC Flag:automated observation with no human augmentation
Text:PAVC 232322Z AUTO 26010KT 10SM BKN029 OVC037 10/05 A3016 RMK AO2
Temperature: 10.0°C ( 50°F)
Dewpoint: 5.0°C ( 41°F) [RH = 71%]
Pressure (altimeter):30.16 inches Hg (1021.4 mb)
Winds:from the W (260 degrees) at 12 MPH (10 knots; 5.1 m/s)
Visibility:10 or more sm (16+ km)
Ceiling:2900 feet AGL
Clouds: broken clouds at 2900 feet AGL, overcast cloud deck at 3700 feet AGL
QC Flag:automated observation with no human augmentation
Text:PAVC 232256Z AUTO 23010KT 10SM OVC035 09/06 A3016 RMK AO2 SLP219 T00940056
Temperature: 9.4°C ( 49°F)
Dewpoint: 5.6°C ( 42°F) [RH = 77%]
Pressure (altimeter):30.16 inches Hg (1021.4 mb) [Sea level pressure: 1021.9 mb]
Winds:from the SW (230 degrees) at 12 MPH (10 knots; 5.1 m/s)
Visibility:10 or more sm (16+ km)
Ceiling:3500 feet AGL
Clouds: overcast cloud deck at 3500 feet AGL
QC Flag:automated observation with no human augmentation
Text:PAVC 232206Z AUTO 22013KT 10SM SCT030 OVC040 09/05 A3016 RMK AO2
Temperature: 9.0°C ( 48°F)
Dewpoint: 5.0°C ( 41°F) [RH = 76%]
Pressure (altimeter):30.16 inches Hg (1021.4 mb)
Winds:from the SW (220 degrees) at 15 MPH (13 knots; 6.7 m/s)
Visibility:10 or more sm (16+ km)
Ceiling:4000 feet AGL
Clouds: scattered clouds at 3000 feet AGL, overcast cloud deck at 4000 feet AGL
QC Flag:automated observation with no human augmentation
Text:PAVC 232156Z AUTO 23011KT 10SM FEW024 BKN029 OVC042 10/06 A3015 RMK AO2 SLP217 T01000056
Temperature: 10.0°C ( 50°F)
Dewpoint: 5.6°C ( 42°F) [RH = 74%]
Pressure (altimeter):30.15 inches Hg (1021.1 mb) [Sea level pressure: 1021.7 mb]
Winds:from the SW (230 degrees) at 13 MPH (11 knots; 5.7 m/s)
Visibility:10 or more sm (16+ km)
Ceiling:2900 feet AGL
Clouds: few clouds at 2400 feet AGL, broken clouds at 2900 feet AGL, overcast cloud deck at 4200 feet AGL
QC Flag:automated observation with no human augmentation
Text:PAVC 232137Z AUTO 23013G16KT 10SM BKN023 BKN033 OVC039 10/05 A3014 RMK AO2
Temperature: 10.0°C ( 50°F)
Dewpoint: 5.0°C ( 41°F) [RH = 71%]
Pressure (altimeter):30.14 inches Hg (1020.7 mb)
Winds:from the SW (230 degrees) at 15 MPH (13 knots; 6.7 m/s) gusting to 18 MPH (16 knots; 8.2 m/s)
Visibility:10 or more sm (16+ km)
Ceiling:2300 feet AGL
Clouds: broken clouds at 2300 feet AGL, broken clouds at 3300 feet AGL, overcast cloud deck at 3900 feet AGL
QC Flag:automated observation with no human augmentation
Text:PAVC 232113Z AUTO 24009KT 10SM SCT020 OVC037 09/06 A3014 RMK AO2
Temperature: 9.0°C ( 48°F)
Dewpoint: 6.0°C ( 43°F) [RH = 81%]
Pressure (altimeter):30.14 inches Hg (1020.7 mb)
Winds:from the WSW (240 degrees) at 10 MPH (9 knots; 4.6 m/s)
Visibility:10 or more sm (16+ km)
Ceiling:3700 feet AGL
Clouds: scattered clouds at 2000 feet AGL, overcast cloud deck at 3700 feet AGL
QC Flag:automated observation with no human augmentation
Text:PAVC 232056Z AUTO 23010KT 10SM BKN020 OVC039 09/05 A3013 RMK AO2 SLP209 60000 T00940050 51016
Temperature: 9.4°C ( 49°F)
Dewpoint: 5.0°C ( 41°F) [RH = 74%]
Pressure (altimeter):30.13 inches Hg (1020.4 mb) [Sea level pressure: 1020.9 mb]
Winds:from the SW (230 degrees) at 12 MPH (10 knots; 5.1 m/s)
Visibility:10 or more sm (16+ km)
Ceiling:2000 feet AGL
Clouds: broken clouds at 2000 feet AGL, overcast cloud deck at 3900 feet AGL
QC Flag:automated observation with no human augmentation
Text:PAVC 231956Z AUTO 25010KT 10SM SCT015 BKN020 OVC037 09/06 A3012 RMK AO2 RAB14E38 SLP207 P0000 T00890056
Temperature: 8.9°C ( 48°F)
Dewpoint: 5.6°C ( 42°F) [RH = 80%]
Pressure (altimeter):30.12 inches Hg (1020.1 mb) [Sea level pressure: 1020.7 mb]
Winds:from the WSW (250 degrees) at 12 MPH (10 knots; 5.1 m/s)
Visibility:10 or more sm (16+ km)
Ceiling:2000 feet AGL
Clouds: scattered clouds at 1500 feet AGL, broken clouds at 2000 feet AGL, overcast cloud deck at 3700 feet AGL
QC Flag:automated observation with no human augmentation

TAF for:PAVC (King Cove Arpt, AK, US)
Text:No data found